createdAt,value
2023-03-22T00:01:41.675Z,99.88
2023-03-22T00:04:14.655Z,100.00
2023-03-22T00:06:48.117Z,100.00
2023-03-22T00:09:21.111Z,100.00
2023-03-22T00:11:57.421Z,100.00
2023-03-22T00:14:32.218Z,100.00
2023-03-22T00:17:05.627Z,100.00
2023-03-22T00:19:42.194Z,100.00
2023-03-22T00:22:16.287Z,100.00
2023-03-22T00:24:49.257Z,100.00
2023-03-22T00:27:22.185Z,100.00
2023-03-22T00:29:56.651Z,100.00
2023-03-22T00:32:29.740Z,100.00
2023-03-22T00:35:03.467Z,100.00
2023-03-22T00:37:38.708Z,100.00
2023-03-22T00:40:13.233Z,100.00
2023-03-22T00:42:46.244Z,100.00
2023-03-22T00:45:21.010Z,100.00
2023-03-22T00:47:54.509Z,100.00
2023-03-22T00:50:27.781Z,100.00
2023-03-22T00:53:00.984Z,100.00
2023-03-22T00:55:34.214Z,100.00
2023-03-22T00:58:07.188Z,100.00
2023-03-22T01:00:42.015Z,100.00
2023-03-22T01:03:16.311Z,100.00
2023-03-22T01:05:50.563Z,100.00
2023-03-22T01:08:23.808Z,100.00
2023-03-22T01:10:56.869Z,100.00
2023-03-22T01:13:30.876Z,100.00
2023-03-22T01:16:06.304Z,100.00
2023-03-22T01:18:39.561Z,100.00
2023-03-22T01:21:12.431Z,100.00
2023-03-22T01:23:45.353Z,100.00
2023-03-22T01:26:18.327Z,100.00
2023-03-22T01:28:51.500Z,100.00
2023-03-22T01:31:25.852Z,100.00
2023-03-22T01:33:59.795Z,100.00
2023-03-22T01:36:32.987Z,100.00
2023-03-22T01:39:06.162Z,100.00
2023-03-22T01:41:39.060Z,100.00
2023-03-22T01:44:13.393Z,100.00
2023-03-22T01:46:48.465Z,100.00
2023-03-22T01:49:24.686Z,100.00
2023-03-22T01:52:01.562Z,100.00
2023-03-22T01:54:36.999Z,100.00
2023-03-22T01:57:10.541Z,100.00
2023-03-22T01:59:45.062Z,100.00
2023-03-22T02:02:20.064Z,100.00
2023-03-22T02:04:58.199Z,100.00
2023-03-22T02:07:31.839Z,100.00
2023-03-22T02:10:05.251Z,100.00
2023-03-22T02:12:45.332Z,100.00
2023-03-22T02:15:21.359Z,100.00
2023-03-22T02:18:07.101Z,100.00
2023-03-22T02:20:58.685Z,100.00
2023-03-22T02:23:46.537Z,100.00
2023-03-22T02:26:49.586Z,100.00
2023-03-22T02:29:30.068Z,100.00
2023-03-22T02:32:21.709Z,100.00
2023-03-22T02:35:21.701Z,100.00
2023-03-22T02:38:18.752Z,100.00
2023-03-22T02:40:55.024Z,100.00
2023-03-22T02:43:38.477Z,100.00
2023-03-22T02:46:15.419Z,100.00
2023-03-22T02:48:54.183Z,100.00
2023-03-22T02:51:30.797Z,100.00
2023-03-22T02:54:05.544Z,100.00
2023-03-22T02:56:42.834Z,100.00
2023-03-22T02:59:16.693Z,100.00
2023-03-22T03:01:51.815Z,100.00
2023-03-22T03:04:27.583Z,100.00
2023-03-22T03:07:04.045Z,100.00
2023-03-22T03:09:37.985Z,100.00
2023-03-22T03:12:18.891Z,100.00
2023-03-22T03:14:52.839Z,100.00
2023-03-22T03:17:33.969Z,100.00
2023-03-22T03:20:15.070Z,100.00
2023-03-22T03:22:53.287Z,100.00
2023-03-22T03:25:28.732Z,100.00
2023-03-22T03:28:06.001Z,100.00
2023-03-22T03:30:46.293Z,100.00
2023-03-22T03:33:21.610Z,100.00
2023-03-22T03:35:58.133Z,100.00
2023-03-22T03:38:32.896Z,100.00
2023-03-22T03:41:07.793Z,100.00
2023-03-22T03:43:43.500Z,100.00
2023-03-22T03:46:17.285Z,100.00
2023-03-22T03:48:51.919Z,100.00
2023-03-22T03:51:25.293Z,100.00
2023-03-22T03:53:58.645Z,100.00
2023-03-22T03:56:31.625Z,100.00
2023-03-22T03:59:08.356Z,100.00
2023-03-22T04:01:41.278Z,100.00
2023-03-22T04:04:15.317Z,100.00
2023-03-22T04:06:49.096Z,100.00
2023-03-22T04:09:22.180Z,100.00
2023-03-22T04:11:56.523Z,100.00
2023-03-22T04:14:31.462Z,100.00
2023-03-22T04:17:05.239Z,100.00
2023-03-22T04:19:38.467Z,100.00
2023-03-22T04:22:18.509Z,100.00
2023-03-22T04:24:51.497Z,100.00
2023-03-22T04:27:24.667Z,100.00
2023-03-22T04:30:01.056Z,100.00
2023-03-22T04:32:34.480Z,100.00
2023-03-22T04:35:08.007Z,100.00
2023-03-22T04:37:41.782Z,100.00
2023-03-22T04:40:17.163Z,100.00
2023-03-22T04:42:51.453Z,100.00
2023-03-22T04:45:29.319Z,100.00
2023-03-22T04:48:02.702Z,100.00
2023-03-22T04:50:35.665Z,100.00
2023-03-22T04:53:08.588Z,100.00
2023-03-22T04:55:41.628Z,100.00
2023-03-22T04:58:16.547Z,100.00
2023-03-22T05:00:52.777Z,100.00
2023-03-22T05:03:26.173Z,100.00
2023-03-22T05:06:00.305Z,100.00
2023-03-22T05:08:34.872Z,100.00
2023-03-22T05:11:09.437Z,100.00
2023-03-22T05:13:43.444Z,100.00
2023-03-22T05:16:18.316Z,100.00
2023-03-22T05:18:54.444Z,100.00
2023-03-22T05:21:29.267Z,100.00
2023-03-22T05:24:02.184Z,100.00
2023-03-22T05:26:38.107Z,100.00
2023-03-22T05:29:11.494Z,100.00
2023-03-22T05:31:46.081Z,100.00
2023-03-22T05:34:20.377Z,100.00
2023-03-22T05:36:53.498Z,100.00
2023-03-22T05:39:26.520Z,100.00
2023-03-22T05:41:59.870Z,100.00
2023-03-22T05:44:32.903Z,100.00
2023-03-22T05:47:07.511Z,100.00
2023-03-22T05:49:40.418Z,100.00
2023-03-22T05:52:13.651Z,100.00
2023-03-22T05:54:47.966Z,100.00
2023-03-22T05:57:21.243Z,100.00
2023-03-22T05:59:54.510Z,100.00
2023-03-22T06:02:29.149Z,100.00
2023-03-22T06:05:02.171Z,100.00
2023-03-22T06:07:35.980Z,100.00
2023-03-22T06:10:12.282Z,100.00
2023-03-22T06:12:45.560Z,100.00
2023-03-22T06:15:18.796Z,100.00
2023-03-22T06:17:53.171Z,100.00
2023-03-22T06:20:26.909Z,100.00
2023-03-22T06:23:00.232Z,100.00
2023-03-22T06:25:33.529Z,100.00
2023-03-22T06:28:08.685Z,100.00
2023-03-22T06:30:42.269Z,100.00
2023-03-22T06:33:17.172Z,100.00
2023-03-22T06:35:50.208Z,100.00
2023-03-22T06:38:23.500Z,100.00
2023-03-22T06:40:56.692Z,100.00
2023-03-22T06:43:29.965Z,100.00
2023-03-22T06:46:03.298Z,100.00
2023-03-22T06:48:37.592Z,100.00
2023-03-22T06:51:11.048Z,100.00
2023-03-22T06:53:45.402Z,100.00
2023-03-22T06:56:18.743Z,100.00
2023-03-22T06:58:52.557Z,100.00
2023-03-22T07:01:26.530Z,100.00
2023-03-22T07:04:01.263Z,100.00
2023-03-22T07:06:34.207Z,100.00
2023-03-22T07:09:07.500Z,100.00
2023-03-22T07:11:41.313Z,100.00
2023-03-22T07:14:14.816Z,100.00
2023-03-22T07:16:48.072Z,100.00
2023-03-22T07:19:22.436Z,100.00
2023-03-22T07:21:55.460Z,100.00
2023-03-22T07:24:29.950Z,100.00
2023-03-22T07:27:03.250Z,100.00
2023-03-22T07:29:36.245Z,100.00
2023-03-22T07:32:09.315Z,100.00
2023-03-22T07:34:43.778Z,100.00
2023-03-22T07:37:17.007Z,100.00
2023-03-22T07:39:50.205Z,100.00
2023-03-22T07:42:23.516Z,100.00
2023-03-22T07:44:56.531Z,100.00
2023-03-22T07:47:40.393Z,100.00
2023-03-22T07:50:16.970Z,100.00
2023-03-22T07:52:50.285Z,100.00
2023-03-22T07:55:23.430Z,100.00
2023-03-22T07:57:56.547Z,100.00
2023-03-22T08:00:30.532Z,100.00
2023-03-22T08:03:03.663Z,100.00
2023-03-22T08:05:40.764Z,100.00
2023-03-22T08:08:14.394Z,100.00
2023-03-22T08:10:49.808Z,100.00
2023-03-22T08:13:23.740Z,100.00
2023-03-22T08:15:57.051Z,100.00
2023-03-22T08:18:30.616Z,100.00
2023-03-22T08:21:05.478Z,100.00
2023-03-22T08:23:42.188Z,100.00
2023-03-22T08:26:15.987Z,100.00
2023-03-22T08:28:49.164Z,100.00
2023-03-22T08:31:22.738Z,100.00
2023-03-22T08:33:56.274Z,100.00
2023-03-22T08:36:31.328Z,100.00
2023-03-22T08:39:04.718Z,100.00
2023-03-22T08:41:37.646Z,100.00
2023-03-22T08:44:10.820Z,100.00
2023-03-22T08:46:43.923Z,100.00
2023-03-22T08:49:17.167Z,100.00
2023-03-22T08:51:51.676Z,100.00
2023-03-22T08:54:25.155Z,100.00
2023-03-22T08:56:59.205Z,100.00
2023-03-22T08:59:32.651Z,100.00
2023-03-22T09:02:06.006Z,100.00
2023-03-22T09:04:39.626Z,100.00
2023-03-22T09:07:13.928Z,100.00
2023-03-22T09:09:47.290Z,100.00
2023-03-22T09:12:21.110Z,100.00
2023-03-22T09:14:56.863Z,100.00
2023-03-22T09:17:30.524Z,100.00
2023-03-22T09:20:12.498Z,100.00
2023-03-22T09:22:47.652Z,100.00
2023-03-22T09:25:21.358Z,100.00
2023-03-22T09:27:54.565Z,100.00
2023-03-22T09:30:28.112Z,100.00
2023-03-22T09:33:01.584Z,100.00
2023-03-22T09:35:34.527Z,100.00
2023-03-22T09:38:09.160Z,100.00
2023-03-22T09:40:47.429Z,99.59
2023-03-22T09:43:20.969Z,100.00
2023-03-22T09:45:54.071Z,98.56
2023-03-22T09:48:30.022Z,96.10
2023-03-22T09:51:03.876Z,95.45
2023-03-22T09:53:38.339Z,95.09
2023-03-22T09:56:15.446Z,95.07
2023-03-22T09:58:52.304Z,94.21
2023-03-22T10:01:30.128Z,92.07
2023-03-22T10:04:07.469Z,91.81
2023-03-22T10:06:41.374Z,90.25
2023-03-22T10:09:20.450Z,91.75
2023-03-22T10:12:05.072Z,91.33
2023-03-22T10:14:41.387Z,90.85
2023-03-22T10:17:17.582Z,90.80
2023-03-22T10:19:53.268Z,91.80
2023-03-22T10:22:30.219Z,90.54
2023-03-22T10:25:06.131Z,89.37
2023-03-22T10:27:39.206Z,90.24
2023-03-22T10:30:20.939Z,91.33
2023-03-22T10:32:58.388Z,92.68
2023-03-22T10:35:32.252Z,92.51
2023-03-22T10:38:08.122Z,92.67
2023-03-22T10:40:42.535Z,92.74
2023-03-22T10:43:18.491Z,93.06
2023-03-22T10:45:53.302Z,90.88
2023-03-22T10:48:29.029Z,89.28
2023-03-22T10:51:02.295Z,88.76
2023-03-22T10:53:38.594Z,87.23
2023-03-22T10:56:15.563Z,89.44
2023-03-22T10:58:49.747Z,88.00
2023-03-22T11:01:28.030Z,86.89
2023-03-22T11:04:07.460Z,86.18
2023-03-22T11:06:41.497Z,87.72
2023-03-22T11:09:17.759Z,86.72
2023-03-22T11:12:00.900Z,86.80
2023-03-22T11:14:36.834Z,88.93
2023-03-22T11:17:14.651Z,85.19
2023-03-22T11:19:53.041Z,87.64
2023-03-22T11:22:27.639Z,85.25
2023-03-22T11:25:01.793Z,86.23
2023-03-22T11:27:39.494Z,86.55
2023-03-22T11:30:20.092Z,84.55
2023-03-22T11:33:01.258Z,85.01
2023-03-22T11:35:36.702Z,83.55
2023-03-22T11:38:23.825Z,83.77
2023-03-22T11:40:57.845Z,85.64
2023-03-22T11:43:35.880Z,85.00
2023-03-22T11:46:09.756Z,84.51
2023-03-22T11:48:43.341Z,84.68
2023-03-22T11:51:20.783Z,84.56
2023-03-22T11:53:56.894Z,82.76
2023-03-22T11:56:31.745Z,83.99
2023-03-22T11:59:07.906Z,84.13
2023-03-22T12:01:43.983Z,85.66
2023-03-22T12:04:21.126Z,84.46
2023-03-22T12:06:56.812Z,84.69
2023-03-22T12:09:36.804Z,83.33
2023-03-22T12:12:15.058Z,83.31
2023-03-22T12:14:52.844Z,84.17
2023-03-22T12:17:30.297Z,83.09
2023-03-22T12:20:08.416Z,82.16
2023-03-22T12:22:43.496Z,82.49
2023-03-22T12:25:17.773Z,80.72
2023-03-22T12:27:54.648Z,80.04
2023-03-22T12:30:32.174Z,79.36
2023-03-22T12:33:07.842Z,78.76
2023-03-22T12:35:44.349Z,74.35
2023-03-22T12:38:24.956Z,74.66
2023-03-22T12:40:59.160Z,74.86
2023-03-22T12:43:49.701Z,75.51
2023-03-22T12:46:26.323Z,77.25
2023-03-22T12:49:04.015Z,77.64
2023-03-22T12:51:37.836Z,77.77
2023-03-22T12:54:12.903Z,76.64
2023-03-22T12:56:47.325Z,75.46
2023-03-22T12:59:23.464Z,76.43
2023-03-22T13:02:00.306Z,77.50
2023-03-22T13:04:46.883Z,76.11
2023-03-22T13:07:32.776Z,77.61
2023-03-22T13:10:24.442Z,75.95
2023-03-22T13:13:12.168Z,75.92
2023-03-22T13:15:59.760Z,73.83
2023-03-22T13:18:42.450Z,71.68
2023-03-22T13:21:19.205Z,72.25
2023-03-22T13:23:57.619Z,71.18
2023-03-22T13:26:34.722Z,69.80
2023-03-22T13:29:12.208Z,70.62
2023-03-22T13:31:46.553Z,70.83
2023-03-22T13:34:22.491Z,69.94
2023-03-22T13:36:57.098Z,70.21
2023-03-22T13:39:34.698Z,70.15
2023-03-22T13:42:09.697Z,70.17
2023-03-22T13:44:46.042Z,69.63
2023-03-22T13:47:32.781Z,69.16
2023-03-22T13:50:16.224Z,69.66
2023-03-22T13:52:53.981Z,69.67
2023-03-22T13:55:42.536Z,69.91
2023-03-22T13:58:31.150Z,70.53
2023-03-22T14:01:07.026Z,69.41
2023-03-22T14:03:42.895Z,70.47
2023-03-22T14:06:23.334Z,70.65
2023-03-22T14:08:58.365Z,72.10
2023-03-22T14:11:34.173Z,72.47
2023-03-22T14:14:12.284Z,71.11
2023-03-22T14:16:48.025Z,73.63
2023-03-22T14:19:23.286Z,72.26
